createdAt,value
2023-03-30T00:02:30.167Z,99249.56
2023-03-30T00:08:32.707Z,99238.66
2023-03-30T00:14:36.921Z,99221.16
2023-03-30T00:20:42.212Z,99216.85
2023-03-30T00:26:43.870Z,99221.95
2023-03-30T00:32:46.307Z,99220.94
2023-03-30T00:38:47.906Z,99220.27
2023-03-30T00:45:06.140Z,99203.41
2023-03-30T00:51:09.878Z,99208.31
2023-03-30T00:57:12.283Z,99203.45
2023-03-30T01:03:24.171Z,99197.96
2023-03-30T01:09:25.746Z,99199.98
2023-03-30T01:15:31.543Z,99195.49
2023-03-30T01:22:12.223Z,99184.83
2023-03-30T01:28:25.465Z,99183.32
2023-03-30T01:34:51.061Z,99171.04
2023-03-30T01:41:21.851Z,99174.10
2023-03-30T01:47:31.217Z,99175.77
2023-03-30T01:53:59.199Z,99172.80
2023-03-30T02:00:12.601Z,99165.81
2023-03-30T02:06:23.882Z,99163.73
2023-03-30T02:12:29.493Z,99168.05
2023-03-30T02:18:31.513Z,99166.13
2023-03-30T02:24:33.081Z,99163.52
2023-03-30T02:30:39.373Z,99160.30
2023-03-30T02:37:11.062Z,99156.80
2023-03-30T02:43:37.242Z,99143.83
2023-03-30T02:49:46.094Z,99135.00
2023-03-30T02:56:15.277Z,99136.94
2023-03-30T03:02:48.924Z,99134.02
2023-03-30T03:09:03.239Z,99132.60
2023-03-30T03:15:07.059Z,99122.86
2023-03-30T03:21:13.103Z,99117.15
2023-03-30T03:27:15.671Z,99115.48
2023-03-30T03:33:50.261Z,99109.58
2023-03-30T03:39:56.852Z,99098.54
2023-03-30T03:46:00.009Z,99081.54
2023-03-30T03:52:01.830Z,99075.59
2023-03-30T03:58:06.596Z,99073.02
2023-03-30T04:04:08.257Z,99068.40
2023-03-30T04:10:10.172Z,99060.41
2023-03-30T04:16:18.316Z,99055.29
2023-03-30T04:22:45.416Z,99056.20
2023-03-30T04:29:07.442Z,99049.23
2023-03-30T04:35:18.616Z,99034.75
2023-03-30T04:41:47.955Z,99028.64
2023-03-30T04:48:09.949Z,99028.41
2023-03-30T04:54:14.257Z,99021.02
2023-03-30T05:00:42.004Z,99016.84
2023-03-30T05:07:15.479Z,99008.70
2023-03-30T05:13:23.941Z,99010.31
2023-03-30T05:19:52.815Z,99003.29
2023-03-30T05:26:21.126Z,98997.39
2023-03-30T05:32:49.833Z,98990.61
2023-03-30T05:39:29.658Z,98988.44
2023-03-30T05:45:47.232Z,98994.28
2023-03-30T05:52:08.061Z,98996.39
2023-03-30T05:58:28.505Z,98991.94
2023-03-30T06:04:40.040Z,98986.17
2023-03-30T06:10:41.993Z,98981.23
2023-03-30T06:16:50.392Z,98970.41
2023-03-30T06:22:52.381Z,98964.05
2023-03-30T06:28:56.735Z,98955.36
2023-03-30T06:34:58.437Z,98947.97
2023-03-30T06:41:04.977Z,98941.44
2023-03-30T06:47:07.649Z,98933.71
2023-03-30T06:53:09.063Z,98935.71
2023-03-30T06:59:16.408Z,98932.17
2023-03-30T07:05:37.108Z,98926.16
2023-03-30T07:11:53.869Z,98921.22
2023-03-30T07:17:57.648Z,98918.89
2023-03-30T07:24:02.734Z,98912.84
2023-03-30T07:30:20.600Z,98908.40
2023-03-30T07:36:25.196Z,98894.43
2023-03-30T07:42:26.776Z,98893.34
2023-03-30T07:48:28.625Z,98892.61
2023-03-30T07:54:30.594Z,98891.27
2023-03-30T08:00:53.233Z,98878.40
2023-03-30T08:07:26.938Z,98876.45
2023-03-30T08:13:33.710Z,98867.85
2023-03-30T08:19:35.328Z,98853.95
2023-03-30T08:25:37.224Z,98843.92
2023-03-30T08:31:38.740Z,98852.56
2023-03-30T08:37:40.459Z,98850.25
2023-03-30T08:43:50.274Z,98853.73
2023-03-30T08:50:01.187Z,98848.57
2023-03-30T08:56:32.100Z,98840.07
2023-03-30T09:02:38.189Z,98832.03
2023-03-30T09:08:39.993Z,98832.77
2023-03-30T09:14:45.291Z,98833.73
2023-03-30T09:20:47.699Z,98826.57
2023-03-30T09:27:24.712Z,98817.69
2023-03-30T09:33:44.602Z,98801.34
2023-03-30T09:39:47.310Z,98789.25
2023-03-30T09:45:48.810Z,98772.13
2023-03-30T09:52:03.493Z,98767.61
2023-03-30T09:58:26.099Z,98760.30
2023-03-30T10:04:27.628Z,98745.75
2023-03-30T10:10:36.829Z,98742.75
2023-03-30T10:16:38.377Z,98733.09
2023-03-30T10:22:53.649Z,98729.28
2023-03-30T10:29:06.924Z,98719.02
2023-03-30T10:35:09.452Z,98698.42
2023-03-30T10:41:15.087Z,98692.32
2023-03-30T10:47:48.925Z,98685.86
2023-03-30T10:54:02.534Z,98666.67
2023-03-30T11:00:12.344Z,98673.27
2023-03-30T11:06:22.204Z,98653.93
2023-03-30T11:12:36.296Z,98630.56
2023-03-30T11:18:52.743Z,98626.94
2023-03-30T11:24:57.657Z,98610.66
2023-03-30T11:31:04.387Z,98611.20
2023-03-30T11:37:13.838Z,98605.95
2023-03-30T11:43:17.083Z,98606.39
2023-03-30T11:49:37.953Z,98596.86
2023-03-30T11:55:39.314Z,98593.89
2023-03-30T12:01:56.073Z,98599.63
2023-03-30T12:08:00.589Z,98600.78
2023-03-30T12:14:02.184Z,98583.50
2023-03-30T12:20:10.141Z,98558.80
2023-03-30T12:26:26.422Z,98547.67
2023-03-30T12:32:29.377Z,98528.17
2023-03-30T12:38:41.048Z,98528.09
2023-03-30T12:45:02.160Z,98532.83
2023-03-30T12:51:03.827Z,98530.77
2023-03-30T12:57:17.707Z,98540.79
2023-03-30T13:03:25.275Z,98544.43
2023-03-30T13:09:27.264Z,98543.02
2023-03-30T13:15:28.869Z,98547.29
2023-03-30T13:21:47.207Z,98549.77
2023-03-30T13:27:50.336Z,98550.42
2023-03-30T13:34:06.793Z,98549.81
2023-03-30T13:40:35.172Z,98547.80
2023-03-30T13:46:52.474Z,98548.09
2023-03-30T13:52:55.524Z,98546.02
2023-03-30T13:59:02.775Z,98542.75
2023-03-30T14:05:16.188Z,98538.45
2023-03-30T14:11:21.125Z,98539.89
2023-03-30T14:17:23.867Z,98537.64
2023-03-30T14:23:31.121Z,98537.70
2023-03-30T14:29:32.817Z,98531.64
2023-03-30T14:35:39.363Z,98525.05
2023-03-30T14:41:40.829Z,98522.20
2023-03-30T14:47:42.587Z,98517.39
2023-03-30T14:53:45.634Z,98518.42
2023-03-30T14:59:50.850Z,98523.15
2023-03-30T15:05:53.479Z,98520.87
2023-03-30T15:11:58.524Z,98514.05
2023-03-30T15:18:02.331Z,98514.02
2023-03-30T15:24:08.190Z,98509.50
2023-03-30T15:30:26.161Z,98509.73
2023-03-30T15:45:01.060Z,98501.67
2023-03-30T15:51:07.491Z,98497.64
2023-03-30T15:57:08.983Z,98484.64
2023-03-30T16:03:12.476Z,98479.06
2023-03-30T16:09:15.505Z,98475.84
2023-03-30T16:15:19.609Z,98479.19
2023-03-30T16:21:23.801Z,98473.98
2023-03-30T16:27:25.199Z,98470.73
2023-03-30T16:33:26.635Z,98470.58
2023-03-30T16:39:29.838Z,98467.34
2023-03-30T16:45:33.594Z,98457.58
2023-03-30T16:51:35.199Z,98459.06
2023-03-30T16:57:36.940Z,98454.48
2023-03-30T17:03:39.271Z,98452.41
2023-03-30T17:09:40.932Z,98448.80
2023-03-30T17:15:42.737Z,98451.17
2023-03-30T17:21:45.134Z,98444.05
2023-03-30T17:27:47.967Z,98438.05
2023-03-30T17:33:51.233Z,98436.98
2023-03-30T17:39:53.174Z,98430.90
2023-03-30T17:45:55.092Z,98427.27
2023-03-30T17:51:56.882Z,98414.14
2023-03-30T17:57:59.497Z,98413.48
2023-03-30T18:04:01.118Z,98411.15
2023-03-30T18:10:19.713Z,98410.27
2023-03-30T18:16:23.661Z,98416.69
2023-03-30T18:22:25.417Z,98421.82
2023-03-30T18:28:28.025Z,98425.65
2023-03-30T18:34:30.203Z,98423.67
2023-03-30T18:40:37.631Z,98419.92
2023-03-30T18:46:39.926Z,98421.89
2023-03-30T18:52:42.270Z,98416.36
2023-03-30T18:58:44.164Z,98419.91
2023-03-30T19:04:48.377Z,98414.34
2023-03-30T19:10:55.407Z,98413.67
2023-03-30T19:17:01.879Z,98411.93
2023-03-30T19:23:06.114Z,98405.52
2023-03-30T19:29:07.999Z,98397.95
2023-03-30T19:35:11.178Z,98394.24
2023-03-30T19:41:13.620Z,98386.28
2023-03-30T19:47:17.718Z,98388.07
2023-03-30T19:53:19.301Z,98386.48
2023-03-30T19:59:24.033Z,98385.52
2023-03-30T20:05:26.047Z,98388.06
2023-03-30T20:11:28.124Z,98396.47
2023-03-30T20:17:33.418Z,98391.66
2023-03-30T20:23:35.513Z,98389.11
2023-03-30T20:29:39.085Z,98391.80
2023-03-30T20:35:43.263Z,98384.17
2023-03-30T20:41:44.894Z,98377.17
2023-03-30T20:47:49.275Z,98379.23
2023-03-30T20:53:51.018Z,98374.91
2023-03-30T20:59:55.712Z,98374.33
2023-03-30T21:05:59.842Z,98359.77
2023-03-30T21:12:02.920Z,98353.02
2023-03-30T21:18:04.909Z,98347.66
2023-03-30T21:24:11.218Z,98353.25
2023-03-30T21:30:13.741Z,98348.60
2023-03-30T21:36:18.737Z,98352.09
2023-03-30T21:42:25.696Z,98351.69
2023-03-30T21:48:34.694Z,98337.97
2023-03-30T21:54:37.195Z,98335.47
2023-03-30T22:00:39.879Z,98330.77
2023-03-30T22:06:41.338Z,98328.43
2023-03-30T22:12:42.885Z,98317.33
2023-03-30T22:18:45.138Z,98306.42
2023-03-30T22:24:46.654Z,98312.98
2023-03-30T22:30:48.288Z,98307.38
2023-03-30T22:36:52.242Z,98301.31
2023-03-30T22:42:54.048Z,98304.67
2023-03-30T22:48:56.019Z,98302.10
2023-03-30T22:54:57.784Z,98307.02
2023-03-30T23:01:08.498Z,98296.58
2023-03-30T23:07:11.122Z,98284.61
2023-03-30T23:13:13.319Z,98287.56
2023-03-30T23:19:15.395Z,98291.85
2023-03-30T23:25:20.345Z,98307.52
2023-03-30T23:31:22.296Z,98310.31
2023-03-30T23:37:24.827Z,98308.43
2023-03-30T23:43:26.366Z,98313.05
2023-03-30T23:49:28.829Z,98318.98
2023-03-30T23:55:35.280Z,98324.05
